Clementwood, Vermont
Current Conditions -  °F | °C
As of 4:15 AM on Thursday 23 Oct 2014 (Local Time) from KRUT Reporting Station
Overcast Overcast  
Wind Chill: 39°   Ceiling: 2400
Heat Index: 45°   Visibility: 10mi
Dew Point: 39°   Wind: 10mph
Humidity: 81%   Direction: 330°NNW
Pressure: 29.9"   Gusts: 17mph
Location:  43.6369°N, 72.9375°W
Report Text: KRUT 230815Z 33009G15KT 10SM BKN024 OVC030 07/04 A2990 RMK AO1
Loading
Personal Weather Stations






























Interactive Weather Map
Tropical Storm Tracking
New forecast layout! Learn more

10-Day Weather Forecast

Advertisements
Track Severe Weather on mobile